createdAt,value
2023-02-19T00:03:54.506Z,97773.72
2023-02-19T00:09:16.697Z,97775.63
2023-02-19T00:14:37.919Z,97773.22
2023-02-19T00:19:59.249Z,97777.28
2023-02-19T00:25:20.497Z,97806.88
2023-02-19T00:30:41.565Z,97790.22
2023-02-19T00:36:03.336Z,97789.63
2023-02-19T00:41:24.616Z,97783.59
2023-02-19T00:46:47.384Z,97774.09
2023-02-19T00:52:08.106Z,97775.09
2023-02-19T00:57:28.915Z,97762.22
2023-02-19T01:02:49.678Z,97763.94
2023-02-19T01:08:10.467Z,97761.00
2023-02-19T01:13:31.613Z,97767.75
2023-02-19T01:18:52.365Z,97760.28
2023-02-19T01:24:13.604Z,97741.69
2023-02-19T01:29:34.626Z,97734.22
2023-02-19T01:34:55.990Z,97724.59
2023-02-19T01:40:16.812Z,97715.78
2023-02-19T01:45:39.508Z,97702.63
2023-02-19T01:51:04.942Z,97719.31
2023-02-19T01:56:25.940Z,97703.94
2023-02-19T02:01:46.977Z,97692.38
2023-02-19T02:07:28.115Z,97681.09
2023-02-19T02:12:49.519Z,97673.22
2023-02-19T02:18:30.970Z,97676.00
2023-02-19T02:24:16.200Z,97658.25
2023-02-19T02:29:56.053Z,97652.09
2023-02-19T02:35:20.394Z,97636.13
2023-02-19T02:40:43.139Z,97597.03
2023-02-19T02:46:05.476Z,97603.94
2023-02-19T02:51:34.198Z,97587.97
2023-02-19T02:57:01.689Z,97583.13
2023-02-19T03:02:28.200Z,97597.03
2023-02-19T03:07:59.613Z,97586.94
2023-02-19T03:13:52.876Z,97557.66
2023-02-19T03:19:20.929Z,97531.72
2023-02-19T03:25:04.377Z,97540.66
2023-02-19T03:30:29.578Z,97540.97
2023-02-19T03:35:53.593Z,97535.69
2023-02-19T03:41:35.963Z,97519.59
2023-02-19T03:47:17.987Z,97515.47
2023-02-19T03:52:43.287Z,97528.22
2023-02-19T03:58:15.322Z,97525.88
2023-02-19T04:03:47.090Z,97540.66
2023-02-19T04:09:09.980Z,97532.75
2023-02-19T04:14:39.012Z,97525.28
2023-02-19T04:20:00.250Z,97526.88
2023-02-19T04:25:21.138Z,97524.53
2023-02-19T04:30:42.712Z,97510.16
2023-02-19T04:36:03.790Z,97512.91
2023-02-19T04:41:25.000Z,97511.03
2023-02-19T04:46:45.613Z,97512.03
2023-02-19T04:52:06.445Z,97508.94
2023-02-19T04:57:27.257Z,97500.44
2023-02-19T05:02:48.443Z,97511.56
2023-02-19T05:08:09.517Z,97495.16
2023-02-19T05:13:30.946Z,97486.19
2023-02-19T05:18:52.002Z,97498.06
2023-02-19T05:24:12.785Z,97489.72
2023-02-19T05:29:40.439Z,97498.38
2023-02-19T05:35:01.809Z,97499.81
2023-02-19T05:40:22.509Z,97499.81
2023-02-19T05:45:43.564Z,97504.66
2023-02-19T05:51:05.613Z,97498.06
2023-02-19T05:56:33.897Z,97486.66
2023-02-19T06:01:55.388Z,97485.47
2023-02-19T06:07:16.612Z,97493.97
2023-02-19T06:12:37.953Z,97490.75
2023-02-19T06:17:59.114Z,97487.22
2023-02-19T06:23:19.913Z,97482.81
2023-02-19T06:28:41.210Z,97487.97
2023-02-19T06:34:04.891Z,97496.84
2023-02-19T06:39:26.384Z,97492.97
2023-02-19T06:44:47.343Z,97489.38
2023-02-19T06:50:08.238Z,97487.19
2023-02-19T06:55:29.069Z,97499.75
2023-02-19T07:00:49.875Z,97493.81
2023-02-19T07:06:11.142Z,97471.41
2023-02-19T07:11:33.469Z,97498.22
2023-02-19T07:16:54.258Z,97497.44
2023-02-19T07:22:14.990Z,97527.44
2023-02-19T07:27:35.844Z,97524.97
2023-02-19T07:32:56.641Z,97546.84
2023-02-19T07:38:18.390Z,97537.81
2023-02-19T07:43:39.453Z,97552.78
2023-02-19T07:49:00.545Z,97555.81
2023-02-19T07:54:21.295Z,97573.75
2023-02-19T07:59:42.086Z,97603.09
2023-02-19T08:05:05.055Z,97610.09
2023-02-19T08:10:45.226Z,97628.22
2023-02-19T08:16:21.752Z,97634.38
2023-02-19T08:21:48.029Z,97637.38
2023-02-19T08:27:09.172Z,97637.84
2023-02-19T08:32:30.148Z,97647.22
2023-02-19T08:37:51.333Z,97643.25
2023-02-19T08:43:13.633Z,97638.81
2023-02-19T08:48:34.732Z,97630.75
2023-02-19T08:53:56.027Z,97632.41
2023-02-19T08:59:17.247Z,97619.53
2023-02-19T09:04:39.059Z,97625.63
2023-02-19T09:10:03.733Z,97634.56
2023-02-19T09:15:24.715Z,97636.47
2023-02-19T09:20:46.075Z,97649.72
2023-02-19T09:26:09.453Z,97661.63
2023-02-19T09:31:30.767Z,97661.03
2023-02-19T09:36:51.727Z,97672.94
2023-02-19T09:42:18.039Z,97683.50
2023-02-19T09:47:39.122Z,97682.81
2023-02-19T09:53:03.213Z,97693.69
2023-02-19T09:58:27.384Z,97695.75
2023-02-19T10:03:48.602Z,97707.91
2023-02-19T10:09:21.429Z,97705.34
2023-02-19T10:14:45.182Z,97718.91
2023-02-19T10:20:06.693Z,97734.25
2023-02-19T10:25:27.503Z,97747.84
2023-02-19T10:30:53.208Z,97752.16
2023-02-19T10:36:36.494Z,97765.03
2023-02-19T10:41:58.805Z,97771.22
2023-02-19T10:47:21.856Z,97789.44
2023-02-19T10:52:43.033Z,97804.00
2023-02-19T10:58:24.060Z,97806.91
2023-02-19T11:03:45.042Z,97828.22
2023-02-19T11:09:07.151Z,97833.72
2023-02-19T11:14:28.104Z,97841.56
2023-02-19T11:19:51.586Z,97851.59
2023-02-19T11:25:15.225Z,97865.25
2023-02-19T11:30:43.154Z,97863.03
2023-02-19T11:36:16.514Z,97878.44
2023-02-19T11:42:22.699Z,97883.03
2023-02-19T11:47:58.262Z,97889.06
2023-02-19T11:53:27.581Z,97905.06
2023-02-19T11:58:53.302Z,97904.03
2023-02-19T12:04:51.811Z,97925.88
2023-02-19T12:10:28.721Z,97933.22
2023-02-19T12:16:26.776Z,97941.00
2023-02-19T12:22:15.275Z,97950.81
2023-02-19T12:27:48.455Z,97965.22
2023-02-19T12:33:18.634Z,97976.97
2023-02-19T12:38:49.310Z,97992.03
2023-02-19T12:44:22.836Z,97991.63
2023-02-19T12:49:47.267Z,97998.00
2023-02-19T12:55:29.006Z,97998.59
2023-02-19T13:00:51.114Z,98000.00
2023-02-19T13:06:36.782Z,98011.00
2023-02-19T13:12:01.989Z,98005.13
2023-02-19T13:17:32.005Z,98011.19
2023-02-19T13:23:14.282Z,98026.16
2023-02-19T13:29:00.164Z,98043.03
2023-02-19T13:34:47.866Z,98056.44
2023-02-19T13:40:37.408Z,98065.41
2023-02-19T13:46:00.288Z,98074.25
2023-02-19T13:51:24.095Z,98075.81
2023-02-19T13:56:45.326Z,98072.81
2023-02-19T14:02:11.610Z,98077.09
2023-02-19T14:07:50.998Z,98073.09
2023-02-19T14:13:11.689Z,98082.44
2023-02-19T14:18:42.626Z,98097.66
2023-02-19T14:24:03.808Z,98112.81
2023-02-19T14:29:24.884Z,98118.66
2023-02-19T14:34:46.129Z,98117.34
2023-02-19T14:40:07.644Z,98125.09
2023-02-19T14:45:28.577Z,98122.75
2023-02-19T14:50:51.204Z,98124.78
2023-02-19T14:56:27.935Z,98138.06
2023-02-19T15:01:55.711Z,98155.28
2023-02-19T15:07:21.734Z,98163.78
2023-02-19T15:12:48.000Z,98165.38
2023-02-19T15:18:18.234Z,98181.28
2023-02-19T15:23:39.204Z,98184.03
2023-02-19T15:29:01.106Z,98208.03
2023-02-19T15:34:26.626Z,98208.69
2023-02-19T15:39:48.395Z,98208.06
2023-02-19T15:45:41.771Z,98222.41
2023-02-19T15:51:09.480Z,98225.28
2023-02-19T15:56:31.922Z,98232.06
2023-02-19T16:01:52.784Z,98225.88
2023-02-19T16:07:27.605Z,98234.06
2023-02-19T16:13:01.586Z,98236.03
2023-02-19T16:18:22.645Z,98249.28
2023-02-19T16:23:43.911Z,98248.94
2023-02-19T16:29:04.759Z,98252.47
2023-02-19T16:34:55.192Z,98263.41
2023-02-19T16:40:16.859Z,98268.03
2023-02-19T16:45:38.075Z,98264.69
2023-02-19T16:50:59.602Z,98283.19
2023-02-19T16:56:23.012Z,98296.47
2023-02-19T17:01:44.001Z,98301.25
2023-02-19T17:07:05.043Z,98319.38
2023-02-19T17:12:26.213Z,98329.69
2023-02-19T17:17:47.177Z,98325.22
2023-02-19T17:23:08.192Z,98347.91
2023-02-19T17:28:29.070Z,98366.88
2023-02-19T17:33:50.671Z,98372.38
2023-02-19T17:39:15.297Z,98374.78
2023-02-19T17:44:36.183Z,98387.09
2023-02-19T17:49:57.729Z,98390.97
2023-02-19T17:55:18.723Z,98375.59
2023-02-19T18:00:39.971Z,98379.94
2023-02-19T18:06:01.357Z,98391.66
2023-02-19T18:11:23.042Z,98408.91
2023-02-19T18:16:50.689Z,98418.97
2023-02-19T18:22:11.965Z,98427.94
2023-02-19T18:27:33.209Z,98442.22
2023-02-19T18:32:54.318Z,98456.72
2023-02-19T18:38:15.985Z,98468.44
2023-02-19T18:43:37.148Z,98481.50
2023-02-19T18:48:58.466Z,98485.16
2023-02-19T18:54:24.203Z,98480.38
2023-02-19T18:59:45.763Z,98484.09
2023-02-19T19:05:07.385Z,98499.19
2023-02-19T19:10:29.048Z,98483.13
2023-02-19T19:15:51.157Z,98492.28
2023-02-19T19:21:14.877Z,98475.09
2023-02-19T19:26:36.016Z,98479.34
2023-02-19T19:31:57.393Z,98494.44
2023-02-19T19:37:18.701Z,98505.28
2023-02-19T19:42:39.762Z,98509.13
2023-02-19T19:48:00.665Z,98512.97
2023-02-19T19:53:21.914Z,98518.06
2023-02-19T19:58:43.326Z,98528.16
2023-02-19T20:04:04.745Z,98521.78
2023-02-19T20:09:29.150Z,98508.94
2023-02-19T20:14:50.449Z,98499.59
2023-02-19T20:20:12.097Z,98504.81
2023-02-19T20:25:33.493Z,98513.41
2023-02-19T20:30:54.758Z,98515.00
2023-02-19T20:36:15.873Z,98522.88
2023-02-19T20:41:37.104Z,98539.75
2023-02-19T20:46:58.937Z,98549.09
2023-02-19T20:52:20.971Z,98539.00
2023-02-19T20:57:42.381Z,98538.16
2023-02-19T21:03:03.575Z,98541.31
2023-02-19T21:08:25.392Z,98546.41
2023-02-19T21:13:46.655Z,98554.16
2023-02-19T21:19:07.930Z,98567.00
2023-02-19T21:24:29.138Z,98568.59
2023-02-19T21:29:49.975Z,98570.47
2023-02-19T21:35:10.913Z,98568.13
2023-02-19T21:40:32.937Z,98570.94
2023-02-19T21:45:53.874Z,98567.22
2023-02-19T21:51:15.443Z,98571.69
2023-02-19T21:56:37.417Z,98568.63
2023-02-19T22:01:58.346Z,98576.00
2023-02-19T22:07:20.277Z,98579.00
2023-02-19T22:12:41.555Z,98575.97
2023-02-19T22:18:02.703Z,98573.75
2023-02-19T22:23:24.271Z,98578.66
2023-02-19T22:28:46.093Z,98590.69
2023-02-19T22:34:07.419Z,98575.69
2023-02-19T22:39:28.512Z,98568.34
2023-02-19T22:44:49.386Z,98565.47
2023-02-19T22:50:20.079Z,98573.25
2023-02-19T22:55:41.001Z,98571.22
2023-02-19T23:01:01.871Z,98567.81
2023-02-19T23:06:30.381Z,98576.75
2023-02-19T23:11:51.661Z,98578.03
2023-02-19T23:17:12.664Z,98580.38
2023-02-19T23:22:35.252Z,98572.69
2023-02-19T23:27:56.118Z,98565.16
2023-02-19T23:33:18.045Z,98558.88
2023-02-19T23:38:39.002Z,98547.72
2023-02-19T23:43:59.856Z,98546.19
2023-02-19T23:49:20.774Z,98533.50
2023-02-19T23:54:42.138Z,98545.00
